createdAt,value
2022-11-13T00:01:26.818Z,99.90
2022-11-13T00:03:54.040Z,99.90
2022-11-13T00:06:21.576Z,99.90
2022-11-13T00:08:55.424Z,99.90
2022-11-13T00:11:22.843Z,99.90
2022-11-13T00:13:50.344Z,99.90
2022-11-13T00:16:22.372Z,99.90
2022-11-13T00:18:49.767Z,99.90
2022-11-13T00:21:19.820Z,99.90
2022-11-13T00:23:47.094Z,99.90
2022-11-13T00:26:29.221Z,99.90
2022-11-13T00:28:58.628Z,99.90
2022-11-13T00:31:26.891Z,99.90
2022-11-13T00:34:14.083Z,99.90
2022-11-13T00:36:41.727Z,99.90
2022-11-13T00:39:10.002Z,99.90
2022-11-13T00:41:37.091Z,99.90
2022-11-13T00:44:04.458Z,99.90
2022-11-13T00:46:31.647Z,99.90
2022-11-13T00:48:59.046Z,99.90
2022-11-13T00:51:26.288Z,99.90
2022-11-13T00:53:53.605Z,99.90
2022-11-13T00:56:20.984Z,99.90
2022-11-13T00:58:48.252Z,99.90
2022-11-13T01:01:19.033Z,99.90
2022-11-13T01:03:46.426Z,99.90
2022-11-13T01:06:19.004Z,99.90
2022-11-13T01:08:46.420Z,99.90
2022-11-13T01:11:19.601Z,99.90
2022-11-13T01:13:49.407Z,99.90
2022-11-13T01:16:18.412Z,99.90
2022-11-13T01:18:46.222Z,99.90
2022-11-13T01:21:16.380Z,99.90
2022-11-13T01:23:44.491Z,99.90
2022-11-13T01:26:27.385Z,99.90
2022-11-13T01:28:57.527Z,99.90
2022-11-13T01:31:27.707Z,99.90
2022-11-13T01:33:55.742Z,99.90
2022-11-13T01:36:26.803Z,99.90
2022-11-13T01:38:54.449Z,99.90
2022-11-13T01:41:33.197Z,99.90
2022-11-13T01:44:01.527Z,99.90
2022-11-13T01:46:31.690Z,99.90
2022-11-13T01:49:10.782Z,99.90
2022-11-13T01:51:42.963Z,99.90
2022-11-13T01:54:19.186Z,99.90
2022-11-13T01:56:46.515Z,99.90
2022-11-13T01:59:17.771Z,99.90
2022-11-13T02:01:45.254Z,99.90
2022-11-13T02:04:12.720Z,99.90
2022-11-13T02:06:49.381Z,99.90
2022-11-13T02:09:20.695Z,99.90
2022-11-13T02:11:48.085Z,99.90
2022-11-13T02:14:16.459Z,99.90
2022-11-13T02:16:47.254Z,99.90
2022-11-13T02:19:36.350Z,99.90
2022-11-13T02:22:22.586Z,99.90
2022-11-13T02:24:53.668Z,99.90
2022-11-13T02:27:24.802Z,99.90
2022-11-13T02:29:51.980Z,99.90
2022-11-13T02:32:19.052Z,99.90
2022-11-13T02:34:46.179Z,99.90
2022-11-13T02:37:13.270Z,99.90
2022-11-13T02:39:40.678Z,99.90
2022-11-13T02:42:07.865Z,99.90
2022-11-13T02:44:35.042Z,99.90
2022-11-13T02:47:02.324Z,99.90
2022-11-13T02:49:29.563Z,99.90
2022-11-13T02:51:57.412Z,99.90
2022-11-13T02:54:24.596Z,99.90
2022-11-13T02:56:51.819Z,99.90
2022-11-13T02:59:19.061Z,99.90
2022-11-13T03:01:47.124Z,99.90
2022-11-13T03:04:14.461Z,99.90
2022-11-13T03:06:41.713Z,99.90
2022-11-13T03:09:08.978Z,99.90
2022-11-13T03:11:36.325Z,99.90
2022-11-13T03:14:03.597Z,99.90
2022-11-13T03:16:30.777Z,99.90
2022-11-13T03:18:58.062Z,99.90
2022-11-13T03:21:25.379Z,99.90
2022-11-13T03:23:54.519Z,99.90
2022-11-13T03:26:21.932Z,99.90
2022-11-13T03:28:49.171Z,99.90
2022-11-13T03:31:16.878Z,99.90
2022-11-13T03:33:43.968Z,99.90
2022-11-13T03:36:11.290Z,99.90
2022-11-13T03:38:38.692Z,99.90
2022-11-13T03:41:06.150Z,99.90
2022-11-13T03:43:33.397Z,99.90
2022-11-13T03:46:00.737Z,99.90
2022-11-13T03:48:28.348Z,99.90
2022-11-13T03:50:56.509Z,99.90
2022-11-13T03:53:23.826Z,99.90
2022-11-13T03:55:51.188Z,99.90
2022-11-13T03:58:18.839Z,99.90
2022-11-13T04:00:47.050Z,99.90
2022-11-13T04:03:14.507Z,99.90
2022-11-13T04:05:43.328Z,99.90
2022-11-13T04:08:10.620Z,99.90
2022-11-13T04:10:37.921Z,99.90
2022-11-13T04:13:05.163Z,99.90
2022-11-13T04:15:32.569Z,99.90
2022-11-13T04:17:59.885Z,99.90
2022-11-13T04:20:30.476Z,99.90
2022-11-13T04:22:58.112Z,99.90
2022-11-13T04:25:26.582Z,99.90
2022-11-13T04:27:54.304Z,99.90
2022-11-13T04:30:21.403Z,99.90
2022-11-13T04:32:48.525Z,99.90
2022-11-13T04:35:15.786Z,99.90
2022-11-13T04:37:42.988Z,99.90
2022-11-13T04:40:10.974Z,99.90
2022-11-13T04:42:50.237Z,99.90
2022-11-13T04:45:19.668Z,99.90
2022-11-13T04:47:47.158Z,99.90
2022-11-13T04:50:15.857Z,99.90
2022-11-13T04:52:44.230Z,99.90
2022-11-13T04:55:12.510Z,99.90
2022-11-13T04:57:40.253Z,99.90
2022-11-13T05:00:09.038Z,99.90
2022-11-13T05:02:36.258Z,99.90
2022-11-13T05:05:05.415Z,99.90
2022-11-13T05:07:32.672Z,99.90
2022-11-13T05:09:59.829Z,99.90
2022-11-13T05:12:26.984Z,99.90
2022-11-13T05:14:54.147Z,99.90
2022-11-13T05:17:21.443Z,99.90
2022-11-13T05:19:48.592Z,99.90
2022-11-13T05:22:15.873Z,99.90
2022-11-13T05:24:43.040Z,99.90
2022-11-13T05:27:14.288Z,99.90
2022-11-13T05:29:44.168Z,99.90
2022-11-13T05:32:11.455Z,99.90
2022-11-13T05:34:38.694Z,99.90
2022-11-13T05:37:05.899Z,99.90
2022-11-13T05:39:33.153Z,99.90
2022-11-13T05:42:00.343Z,99.90
2022-11-13T05:44:27.587Z,99.90
2022-11-13T05:46:54.855Z,99.90
2022-11-13T05:49:22.014Z,99.90
2022-11-13T05:51:49.380Z,99.90
2022-11-13T05:54:16.714Z,99.90
2022-11-13T05:56:43.976Z,99.90
2022-11-13T05:59:11.250Z,99.90
2022-11-13T06:01:40.335Z,99.90
2022-11-13T06:04:09.764Z,99.90
2022-11-13T06:06:37.599Z,99.90
2022-11-13T06:09:06.250Z,99.90
2022-11-13T06:11:34.188Z,99.90
2022-11-13T06:14:02.311Z,99.90
2022-11-13T06:16:38.490Z,99.90
2022-11-13T06:19:08.397Z,99.90
2022-11-13T06:21:39.138Z,99.90
2022-11-13T06:24:07.752Z,99.90
2022-11-13T06:26:36.568Z,99.90
2022-11-13T06:29:06.254Z,99.90
2022-11-13T06:31:35.965Z,99.90
2022-11-13T06:34:04.960Z,99.90
2022-11-13T06:36:35.617Z,99.90
2022-11-13T06:39:05.648Z,99.90
2022-11-13T06:41:33.055Z,99.90
2022-11-13T06:44:03.043Z,99.90
2022-11-13T06:46:31.332Z,99.90
2022-11-13T06:48:59.184Z,99.90
2022-11-13T06:51:30.490Z,99.90
2022-11-13T06:53:58.433Z,99.90
2022-11-13T06:56:26.897Z,99.90
2022-11-13T06:58:57.404Z,99.90
2022-11-13T07:01:28.195Z,99.90
2022-11-13T07:03:55.734Z,99.90
2022-11-13T07:06:24.429Z,99.90
2022-11-13T07:08:52.256Z,99.90
2022-11-13T07:11:21.696Z,99.90
2022-11-13T07:13:49.140Z,99.90
2022-11-13T07:16:18.290Z,99.90
2022-11-13T07:18:53.357Z,99.90
2022-11-13T07:21:22.281Z,99.90
2022-11-13T07:23:50.686Z,99.90
2022-11-13T07:26:18.236Z,99.90
2022-11-13T07:28:46.366Z,99.90
2022-11-13T07:31:16.345Z,99.90
2022-11-13T07:33:44.151Z,99.90
2022-11-13T07:36:11.842Z,99.90
2022-11-13T07:38:39.204Z,99.90
2022-11-13T07:41:06.615Z,99.90
2022-11-13T07:43:34.528Z,99.90
2022-11-13T07:46:02.072Z,99.90
2022-11-13T07:48:30.151Z,99.90
2022-11-13T07:51:02.144Z,99.90
2022-11-13T07:53:29.499Z,99.90
2022-11-13T07:55:56.831Z,99.90
2022-11-13T07:58:24.016Z,99.90
2022-11-13T08:00:51.341Z,99.90
2022-11-13T08:03:18.761Z,99.90
2022-11-13T08:05:46.161Z,99.90
2022-11-13T08:08:14.903Z,99.90
2022-11-13T08:10:42.272Z,99.90
2022-11-13T08:13:11.277Z,99.90
2022-11-13T08:15:38.914Z,99.90
2022-11-13T08:18:06.596Z,99.90
2022-11-13T08:20:35.443Z,99.90
2022-11-13T08:23:04.433Z,99.90
2022-11-13T08:25:33.082Z,99.90
2022-11-13T08:28:00.721Z,99.90
2022-11-13T08:30:29.176Z,99.90
2022-11-13T08:32:56.744Z,99.90
2022-11-13T08:35:29.209Z,99.90
2022-11-13T08:38:02.934Z,99.90
2022-11-13T08:40:31.667Z,99.90
2022-11-13T08:43:00.672Z,99.90
2022-11-13T08:45:29.024Z,99.90
2022-11-13T08:48:04.193Z,99.90
2022-11-13T08:50:32.633Z,99.90
2022-11-13T08:53:01.452Z,99.90
2022-11-13T08:55:29.225Z,99.90
2022-11-13T08:58:02.784Z,99.90
2022-11-13T09:00:34.517Z,99.90
2022-11-13T09:03:02.121Z,99.90
2022-11-13T09:05:29.438Z,99.90
2022-11-13T09:07:59.127Z,99.90
2022-11-13T09:10:27.794Z,99.90
2022-11-13T09:13:05.639Z,99.90
2022-11-13T09:15:33.777Z,99.90
2022-11-13T09:18:02.969Z,99.90
2022-11-13T09:20:38.958Z,99.90
2022-11-13T09:23:08.394Z,99.90
2022-11-13T09:25:38.198Z,99.90
2022-11-13T09:28:06.966Z,99.90
2022-11-13T09:30:34.539Z,99.90
2022-11-13T09:33:02.112Z,99.90
2022-11-13T09:35:36.734Z,99.90
2022-11-13T09:38:11.169Z,99.90
2022-11-13T09:40:44.290Z,99.90
2022-11-13T09:43:28.667Z,99.90
2022-11-13T09:46:02.267Z,99.90
2022-11-13T09:49:18.666Z,99.90
2022-11-13T09:52:02.658Z,99.90
2022-11-13T09:54:33.600Z,99.90
2022-11-13T09:57:35.271Z,99.90
2022-11-13T10:00:03.750Z,99.90
2022-11-13T10:02:46.288Z,99.90
2022-11-13T10:05:27.499Z,99.90
2022-11-13T10:08:21.529Z,99.90
2022-11-13T10:10:56.118Z,99.90
2022-11-13T10:13:33.116Z,99.90
2022-11-13T10:16:15.303Z,99.90
2022-11-13T10:18:46.052Z,99.90
2022-11-13T10:21:33.642Z,99.90
2022-11-13T10:24:06.612Z,99.90
2022-11-13T10:26:36.907Z,99.90
2022-11-13T10:29:21.997Z,99.90
2022-11-13T10:31:54.252Z,99.90
2022-11-13T10:34:21.634Z,99.90
2022-11-13T10:37:38.169Z,99.90
2022-11-13T10:40:05.676Z,99.90
2022-11-13T10:42:40.217Z,99.90
2022-11-13T10:45:19.050Z,99.90
2022-11-13T10:48:07.732Z,99.90
2022-11-13T10:50:35.699Z,99.90
2022-11-13T10:53:02.738Z,99.90
2022-11-13T10:55:38.776Z,99.90
2022-11-13T10:58:17.945Z,99.90
2022-11-13T11:00:49.247Z,99.90
2022-11-13T11:03:22.969Z,99.90
2022-11-13T11:06:01.592Z,99.90
2022-11-13T11:08:34.534Z,99.90
2022-11-13T11:11:33.156Z,99.90
2022-11-13T11:14:28.556Z,99.90
2022-11-13T11:16:57.554Z,99.90
2022-11-13T11:19:27.978Z,99.90
2022-11-13T11:22:10.099Z,99.90
2022-11-13T11:24:46.079Z,99.90
2022-11-13T11:27:31.399Z,99.90
2022-11-13T11:30:22.362Z,99.90
2022-11-13T11:33:05.185Z,99.90
2022-11-13T11:35:58.264Z,99.90
2022-11-13T11:38:27.353Z,98.90
2022-11-13T11:41:06.399Z,99.90
2022-11-13T11:44:02.230Z,98.90
2022-11-13T11:46:31.087Z,99.10
2022-11-13T11:49:01.546Z,99.90
2022-11-13T11:51:46.894Z,98.60
2022-11-13T11:54:37.414Z,98.00
2022-11-13T11:57:23.436Z,99.00
2022-11-13T12:00:16.904Z,97.80
2022-11-13T12:03:06.896Z,98.30
2022-11-13T12:06:00.050Z,97.60
2022-11-13T12:08:27.461Z,96.90
2022-11-13T12:11:18.141Z,96.80
2022-11-13T12:14:05.624Z,94.00
2022-11-13T12:16:53.531Z,95.50
2022-11-13T12:19:53.337Z,96.70
2022-11-13T12:22:40.994Z,93.50
2022-11-13T12:25:26.824Z,92.40
2022-11-13T12:28:16.514Z,92.60
2022-11-13T12:30:57.302Z,92.40
2022-11-13T12:33:50.638Z,91.40
2022-11-13T12:36:18.326Z,92.10
2022-11-13T12:38:54.932Z,92.90
2022-11-13T12:41:42.431Z,92.10
2022-11-13T12:44:23.187Z,90.60
2022-11-13T12:46:51.757Z,90.80
2022-11-13T12:49:27.717Z,91.40
2022-11-13T12:51:56.205Z,90.30
2022-11-13T12:54:31.654Z,90.10
2022-11-13T12:57:18.825Z,87.10
2022-11-13T13:00:21.980Z,87.90
2022-11-13T13:03:09.192Z,87.20
2022-11-13T13:06:05.325Z,87.40
2022-11-13T13:08:59.793Z,87.40
2022-11-13T13:11:44.036Z,87.30
2022-11-13T13:14:32.333Z,83.70
2022-11-13T13:17:14.373Z,83.40
2022-11-13T13:19:41.680Z,87.10
2022-11-13T13:22:24.821Z,89.30
2022-11-13T13:25:23.989Z,89.30
2022-11-13T13:28:18.192Z,90.40
2022-11-13T13:31:23.893Z,91.20
2022-11-13T13:34:00.464Z,91.20
2022-11-13T13:36:38.426Z,91.30
2022-11-13T13:39:12.307Z,91.90
2022-11-13T13:41:54.947Z,91.90
2022-11-13T13:44:21.916Z,91.80
2022-11-13T13:46:49.699Z,91.80
2022-11-13T13:49:22.205Z,91.60
2022-11-13T13:51:55.477Z,91.80
2022-11-13T13:54:31.532Z,91.50
2022-11-13T13:56:58.772Z,91.50
2022-11-13T13:59:36.392Z,91.10
2022-11-13T14:02:13.815Z,91.40
2022-11-13T14:04:58.817Z,91.40
2022-11-13T14:07:28.268Z,91.00
2022-11-13T14:10:26.267Z,91.90
2022-11-13T14:12:53.359Z,91.10
2022-11-13T14:15:27.425Z,91.70
2022-11-13T14:18:06.390Z,90.20
2022-11-13T14:20:53.662Z,90.60
2022-11-13T14:23:29.740Z,90.60
2022-11-13T14:25:57.580Z,91.00
2022-11-13T14:28:28.010Z,91.60
2022-11-13T14:30:59.661Z,91.90
2022-11-13T14:33:34.270Z,92.50
2022-11-13T14:36:01.926Z,91.20
2022-11-13T14:38:36.084Z,92.50
2022-11-13T14:41:03.846Z,92.80
2022-11-13T14:43:33.228Z,93.50
2022-11-13T14:46:04.224Z,93.50
2022-11-13T14:48:33.531Z,92.80
2022-11-13T14:51:06.209Z,92.90
2022-11-13T14:53:34.474Z,93.00
2022-11-13T14:56:10.810Z,93.30
2022-11-13T14:58:39.594Z,93.80
2022-11-13T15:01:21.659Z,94.30
2022-11-13T15:03:50.337Z,94.40
2022-11-13T15:06:21.724Z,94.40
2022-11-13T15:08:50.753Z,94.20
2022-11-13T15:11:20.601Z,94.70
2022-11-13T15:13:49.631Z,95.60
2022-11-13T15:16:25.113Z,97.10
2022-11-13T15:19:04.172Z,97.50
2022-11-13T15:21:31.410Z,98.10
2022-11-13T15:23:58.654Z,97.90
2022-11-13T15:26:25.742Z,97.80
2022-11-13T15:28:52.777Z,97.20
2022-11-13T15:31:30.926Z,97.60
2022-11-13T15:33:58.041Z,97.60
2022-11-13T15:36:25.590Z,98.20
2022-11-13T15:38:52.720Z,98.40
2022-11-13T15:41:25.820Z,99.00
2022-11-13T15:43:55.054Z,99.40
2022-11-13T15:46:24.395Z,99.40
2022-11-13T15:48:51.601Z,99.40
2022-11-13T15:51:30.309Z,99.40
2022-11-13T15:54:11.584Z,99.50
2022-11-13T15:56:38.654Z,99.50
2022-11-13T15:59:05.769Z,99.70
2022-11-13T16:01:33.066Z,99.90
2022-11-13T16:04:02.551Z,99.90
2022-11-13T16:06:31.445Z,99.90
2022-11-13T16:08:58.498Z,99.90
2022-11-13T16:11:25.571Z,99.90
2022-11-13T16:13:52.627Z,99.90
2022-11-13T16:16:28.822Z,99.90
2022-11-13T16:19:00.169Z,99.90
2022-11-13T16:21:28.401Z,99.90
2022-11-13T16:23:55.764Z,99.90
2022-11-13T16:26:25.338Z,99.90
2022-11-13T16:31:42.441Z,99.90
2022-11-13T16:34:09.721Z,99.90
2022-11-13T16:36:37.029Z,99.90
2022-11-13T16:39:05.349Z,99.90
2022-11-13T16:41:33.683Z,99.90
2022-11-13T16:44:01.046Z,99.90
2022-11-13T16:46:34.977Z,99.90
2022-11-13T16:49:02.643Z,99.90
2022-11-13T16:51:30.160Z,99.90
2022-11-13T16:53:58.697Z,99.90
2022-11-13T16:56:30.924Z,99.90
2022-11-13T16:58:59.223Z,99.90
2022-11-13T17:01:26.805Z,99.90
2022-11-13T17:03:54.106Z,99.90
2022-11-13T17:06:22.686Z,99.90
2022-11-13T17:08:52.563Z,99.90
2022-11-13T17:11:20.289Z,99.90
2022-11-13T17:13:52.122Z,99.90
2022-11-13T17:16:20.909Z,99.90
2022-11-13T17:18:50.120Z,99.90
2022-11-13T17:21:17.893Z,99.90
2022-11-13T17:23:45.228Z,99.90
2022-11-13T17:26:13.340Z,99.90
2022-11-13T17:28:42.049Z,99.90
2022-11-13T17:31:13.051Z,99.90
2022-11-13T17:33:40.918Z,99.90
2022-11-13T17:36:09.416Z,99.90
2022-11-13T17:38:37.973Z,99.90
2022-11-13T17:41:08.477Z,99.90
2022-11-13T17:43:38.705Z,99.90
2022-11-13T17:46:10.450Z,99.90
2022-11-13T17:48:38.267Z,99.90
2022-11-13T17:51:07.807Z,99.90
2022-11-13T17:53:34.965Z,99.90
2022-11-13T17:56:05.044Z,99.90
2022-11-13T17:58:39.850Z,99.90
2022-11-13T18:01:10.718Z,99.90
2022-11-13T18:03:39.138Z,99.90
2022-11-13T18:06:15.543Z,99.90
2022-11-13T18:08:46.449Z,99.90
2022-11-13T18:11:16.811Z,99.90
2022-11-13T18:13:45.199Z,99.90
2022-11-13T18:16:21.859Z,99.90
2022-11-13T18:18:55.718Z,99.90
2022-11-13T18:21:25.972Z,99.90
2022-11-13T18:24:03.136Z,99.90
2022-11-13T18:26:31.625Z,99.90
2022-11-13T18:29:00.935Z,99.90
2022-11-13T18:31:28.335Z,99.90
2022-11-13T18:33:57.826Z,99.90
2022-11-13T18:36:26.058Z,99.90
2022-11-13T18:38:53.385Z,99.90
2022-11-13T18:41:22.636Z,99.90
2022-11-13T18:43:52.032Z,99.90
2022-11-13T18:46:21.493Z,99.90
2022-11-13T18:48:49.404Z,99.90
2022-11-13T18:51:22.549Z,99.90
2022-11-13T18:53:51.073Z,99.90
2022-11-13T18:56:20.768Z,99.90
2022-11-13T18:58:49.731Z,99.90
2022-11-13T19:01:22.358Z,99.90
2022-11-13T19:04:20.940Z,99.90
2022-11-13T19:06:42.113Z,99.90
2022-11-13T19:09:13.952Z,99.90
2022-11-13T19:11:41.679Z,99.90
2022-11-13T19:14:10.267Z,99.90
2022-11-13T19:16:39.701Z,99.90
2022-11-13T19:19:13.087Z,99.90
2022-11-13T19:21:40.689Z,99.90
2022-11-13T19:24:10.019Z,99.90
2022-11-13T19:26:37.263Z,99.90
2022-11-13T19:29:04.791Z,99.90
2022-11-13T19:31:32.146Z,99.90
2022-11-13T19:34:01.719Z,99.90
2022-11-13T19:36:31.052Z,99.90
2022-11-13T19:38:58.851Z,99.90
2022-11-13T19:41:30.455Z,99.90
2022-11-13T19:43:59.770Z,99.90
2022-11-13T19:46:27.578Z,99.90
2022-11-13T19:48:54.843Z,99.90
2022-11-13T19:51:23.976Z,99.90
2022-11-13T19:53:58.935Z,99.90
2022-11-13T19:56:28.666Z,99.90
2022-11-13T19:58:59.315Z,99.90
2022-11-13T20:01:28.310Z,99.90
2022-11-13T20:04:01.516Z,99.90
2022-11-13T20:06:32.190Z,99.90
2022-11-13T20:09:04.591Z,99.90
2022-11-13T20:11:32.470Z,99.90
2022-11-13T20:14:00.046Z,99.90
2022-11-13T20:16:27.448Z,99.90
2022-11-13T20:18:58.128Z,99.90
2022-11-13T20:21:31.724Z,99.90
2022-11-13T20:24:00.416Z,99.90
2022-11-13T20:26:28.899Z,99.90
2022-11-13T20:28:56.208Z,99.90
2022-11-13T20:31:25.893Z,99.90
2022-11-13T20:33:56.171Z,99.90
2022-11-13T20:36:24.603Z,99.90
2022-11-13T20:38:54.109Z,99.90
2022-11-13T20:41:22.258Z,99.90
2022-11-13T20:43:52.017Z,99.90
2022-11-13T20:46:21.548Z,99.90
2022-11-13T20:48:49.248Z,99.90
2022-11-13T20:51:22.126Z,99.90
2022-11-13T20:53:49.769Z,99.90
2022-11-13T20:56:18.716Z,99.90
2022-11-13T20:58:46.528Z,99.90
2022-11-13T21:01:20.149Z,99.90
2022-11-13T21:03:48.502Z,99.90
2022-11-13T21:06:19.287Z,99.90
2022-11-13T21:08:47.341Z,99.90
2022-11-13T21:11:24.345Z,99.90
2022-11-13T21:13:53.734Z,99.90
2022-11-13T21:16:22.609Z,99.90
2022-11-13T21:18:50.179Z,99.90
2022-11-13T21:21:20.168Z,99.90
2022-11-13T21:23:48.325Z,99.90
2022-11-13T21:26:16.020Z,99.90
2022-11-13T21:28:43.185Z,99.90
2022-11-13T21:31:18.527Z,99.90
2022-11-13T21:33:47.206Z,99.90
2022-11-13T21:36:15.681Z,99.90
2022-11-13T21:38:43.373Z,99.90
2022-11-13T21:41:22.040Z,99.90
2022-11-13T21:44:00.681Z,99.90
2022-11-13T21:46:31.597Z,99.90
2022-11-13T21:49:06.609Z,99.90
2022-11-13T21:51:35.729Z,99.90
2022-11-13T21:54:03.265Z,99.90
2022-11-13T21:56:32.286Z,99.90
2022-11-13T21:58:59.765Z,99.90
2022-11-13T22:01:27.564Z,99.90
2022-11-13T22:03:55.132Z,99.90
2022-11-13T22:06:28.104Z,99.90
2022-11-13T22:09:05.216Z,99.90
2022-11-13T22:11:34.748Z,99.90
2022-11-13T22:14:02.384Z,99.90
2022-11-13T22:16:31.963Z,99.90
2022-11-13T22:19:02.069Z,99.90
2022-11-13T22:21:30.550Z,99.90
2022-11-13T22:23:58.950Z,99.90
2022-11-13T22:26:28.078Z,99.90
2022-11-13T22:28:56.445Z,99.90
2022-11-13T22:31:26.869Z,99.90
2022-11-13T22:33:55.483Z,99.90
2022-11-13T22:36:25.611Z,99.90
2022-11-13T22:38:53.386Z,99.90
2022-11-13T22:41:31.476Z,99.90
2022-11-13T22:44:02.939Z,99.90
2022-11-13T22:46:32.443Z,99.90
2022-11-13T22:49:05.081Z,99.90
2022-11-13T22:51:35.373Z,99.90
2022-11-13T22:54:05.406Z,99.90
2022-11-13T22:56:34.240Z,99.90
2022-11-13T22:59:03.298Z,99.90
2022-11-13T23:01:33.281Z,99.90
2022-11-13T23:04:04.749Z,99.90
2022-11-13T23:06:34.242Z,99.90
2022-11-13T23:09:02.142Z,99.90
2022-11-13T23:11:38.180Z,99.90
2022-11-13T23:14:08.077Z,99.90
2022-11-13T23:16:35.466Z,99.90
2022-11-13T23:19:03.530Z,99.90
2022-11-13T23:21:31.539Z,99.90
2022-11-13T23:23:59.131Z,99.90
2022-11-13T23:26:27.056Z,99.90
2022-11-13T23:28:54.937Z,99.90
2022-11-13T23:31:22.933Z,99.90
2022-11-13T23:33:50.277Z,99.90
2022-11-13T23:36:18.463Z,99.90
2022-11-13T23:38:46.200Z,99.90
2022-11-13T23:41:13.733Z,99.90
2022-11-13T23:46:28.436Z,99.90
2022-11-13T23:48:55.753Z,99.90
2022-11-13T23:51:23.026Z,99.90
2022-11-13T23:53:50.219Z,99.90
2022-11-13T23:56:17.526Z,99.90
2022-11-13T23:58:44.860Z,99.90
